createdAt,value
2019-02-07T00:02:23.620Z,25.43
2019-02-07T00:07:47.855Z,24.27
2019-02-07T00:10:17.436Z,24.03
2019-02-07T00:12:46.556Z,23.60
2019-02-07T00:15:17.155Z,22.63
2019-02-07T00:17:47.539Z,23.63
2019-02-07T00:20:19.479Z,23.30
2019-02-07T00:22:55.032Z,23.23
2019-02-07T00:25:23.935Z,23.20
2019-02-07T00:28:08.881Z,21.87
2019-02-07T00:30:47.913Z,23.07
2019-02-07T00:33:16.812Z,22.33
2019-02-07T00:35:47.039Z,22.23
2019-02-07T00:38:22.787Z,23.47
2019-02-07T00:40:52.695Z,22.23
2019-02-07T00:43:21.859Z,22.67
2019-02-07T00:45:51.695Z,22.17
2019-02-07T00:48:51.708Z,22.87
2019-02-07T00:51:20.943Z,21.90
2019-02-07T00:53:54.769Z,21.00
2019-02-07T01:05:31.930Z,20.47
2019-02-07T01:08:01.100Z,20.10
2019-02-07T01:10:30.059Z,20.03
2019-02-07T01:13:06.608Z,20.40
2019-02-07T01:15:35.991Z,19.77
2019-02-07T01:21:10.537Z,19.47
2019-02-07T01:23:48.743Z,18.20
2019-02-07T01:26:28.430Z,19.07
2019-02-07T01:29:00.616Z,19.23
2019-02-07T01:31:39.650Z,18.90
2019-02-07T01:34:25.782Z,18.37
2019-02-07T01:36:59.962Z,18.40
2019-02-07T01:39:28.949Z,18.80
2019-02-07T01:42:00.902Z,18.80
2019-02-07T01:44:33.705Z,18.93
2019-02-07T01:47:04.766Z,18.87
2019-02-07T01:49:36.111Z,18.43
2019-02-07T01:52:39.833Z,18.83
2019-02-07T01:55:08.993Z,18.93
2019-02-07T01:57:38.127Z,18.67
2019-02-07T02:00:10.408Z,18.07
2019-02-07T02:02:47.943Z,19.40
2019-02-07T02:05:17.605Z,18.93
2019-02-07T02:07:53.502Z,18.70
2019-02-07T02:10:28.628Z,19.20
2019-02-07T02:13:03.135Z,19.37
2019-02-07T02:16:11.191Z,18.63
2019-02-07T02:18:40.672Z,16.93
2019-02-07T02:21:29.401Z,18.10
2019-02-07T02:27:01.577Z,17.20
2019-02-07T02:29:30.417Z,16.63
2019-02-07T02:31:59.431Z,16.70
2019-02-07T02:34:32.082Z,16.13
2019-02-07T02:37:07.226Z,16.93
2019-02-07T02:39:36.398Z,16.57
2019-02-07T02:45:36.409Z,15.57
2019-02-07T02:48:18.646Z,14.97
2019-02-07T02:50:52.068Z,15.27
2019-02-07T02:53:22.186Z,15.17
2019-02-07T02:55:52.341Z,15.43
2019-02-07T02:58:22.293Z,14.93
2019-02-07T03:01:22.401Z,13.97
2019-02-07T03:04:17.986Z,14.13
2019-02-07T03:07:04.645Z,13.73
2019-02-07T03:09:50.853Z,13.77
2019-02-07T03:12:53.567Z,13.67
2019-02-07T03:15:50.181Z,12.77
2019-02-07T03:18:44.978Z,12.97
2019-02-07T03:21:52.320Z,12.60
2019-02-07T03:24:40.565Z,12.23
2019-02-07T03:28:01.397Z,11.87
2019-02-07T03:30:48.402Z,12.17
2019-02-07T03:33:39.522Z,11.80
2019-02-07T03:40:03.722Z,11.27
2019-02-07T03:42:54.450Z,10.47
2019-02-07T03:46:03.280Z,11.13
2019-02-07T03:48:54.831Z,10.07
2019-02-07T03:51:32.441Z,10.53
2019-02-07T03:54:35.557Z,10.27
2019-02-07T03:57:51.604Z,9.63
2019-02-07T04:00:45.484Z,10.10
2019-02-07T04:06:32.964Z,9.40
2019-02-07T04:09:29.810Z,9.10
2019-02-07T04:12:14.462Z,9.10
2019-02-07T04:15:10.786Z,10.27
2019-02-07T04:18:23.553Z,11.23
2019-02-07T04:21:11.401Z,10.53
2019-02-07T04:24:04.784Z,12.00
2019-02-07T04:27:07.103Z,10.57
2019-02-07T04:29:46.794Z,10.10
2019-02-07T04:32:42.242Z,10.60
2019-02-07T04:35:45.343Z,11.17
2019-02-07T04:38:42.318Z,10.87
2019-02-07T04:41:55.750Z,11.80
2019-02-07T04:44:46.881Z,12.10
2019-02-07T04:47:31.048Z,13.17
2019-02-07T04:50:17.473Z,12.87
2019-02-07T04:53:11.315Z,12.33
2019-02-07T04:56:13.349Z,13.17
2019-02-07T04:59:09.023Z,12.60
2019-02-07T05:01:57.631Z,12.60
2019-02-07T05:08:17.141Z,11.83
2019-02-07T05:14:10.454Z,12.50
2019-02-07T05:17:00.883Z,11.53
2019-02-07T05:19:49.273Z,12.43
2019-02-07T05:22:35.553Z,11.23
2019-02-07T05:25:38.829Z,12.17
2019-02-07T05:28:33.776Z,11.50
2019-02-07T05:31:15.581Z,11.40
2019-02-07T05:33:54.918Z,11.23
2019-02-07T05:36:46.343Z,10.73
2019-02-07T05:39:51.295Z,10.27
2019-02-07T05:42:38.467Z,10.93
2019-02-07T05:45:25.434Z,10.17
2019-02-07T05:48:11.604Z,10.07
2019-02-07T05:51:14.842Z,9.70
2019-02-07T05:54:25.786Z,9.80
2019-02-07T05:57:17.511Z,9.40
2019-02-07T06:00:11.775Z,9.17
2019-02-07T06:02:50.146Z,9.30
2019-02-07T06:05:37.331Z,8.63
2019-02-07T06:08:21.403Z,8.30
2019-02-07T06:11:08.000Z,9.00
2019-02-07T06:13:55.911Z,8.57
2019-02-07T06:16:48.406Z,8.13
2019-02-07T06:19:41.813Z,8.53
2019-02-07T06:22:47.804Z,8.73
2019-02-07T06:25:34.167Z,8.00
2019-02-07T06:28:32.769Z,8.40
2019-02-07T06:31:47.138Z,8.53
2019-02-07T06:34:33.683Z,8.87
2019-02-07T06:40:37.025Z,8.43
2019-02-07T06:43:38.251Z,9.13
2019-02-07T06:46:35.594Z,8.90
2019-02-07T06:49:23.815Z,8.23
2019-02-07T06:52:16.408Z,8.40
2019-02-07T06:55:05.145Z,8.33
2019-02-07T06:57:53.202Z,8.33
2019-02-07T07:00:42.871Z,7.90
2019-02-07T07:03:35.141Z,8.37
2019-02-07T07:06:44.809Z,8.03
2019-02-07T07:09:33.294Z,8.30
2019-02-07T07:12:28.815Z,8.10
2019-02-07T07:15:40.227Z,8.33
2019-02-07T07:18:35.959Z,8.90
2019-02-07T07:21:42.013Z,8.73
2019-02-07T07:24:32.871Z,9.97
2019-02-07T07:27:08.516Z,10.43
2019-02-07T07:30:08.748Z,10.93
2019-02-07T07:32:59.511Z,11.70
2019-02-07T07:35:56.607Z,11.03
2019-02-07T07:38:55.153Z,11.73
2019-02-07T07:41:50.944Z,11.37
2019-02-07T07:44:49.080Z,11.70
2019-02-07T07:47:35.710Z,11.83
2019-02-07T07:50:55.221Z,12.57
2019-02-07T07:53:36.668Z,12.77
2019-02-07T07:56:31.914Z,15.00
2019-02-07T07:59:23.795Z,14.30
2019-02-07T08:02:41.030Z,16.80
2019-02-07T08:05:18.318Z,15.77
2019-02-07T08:08:12.394Z,15.40
2019-02-07T08:14:52.175Z,17.20
2019-02-07T08:17:55.313Z,16.10
2019-02-07T08:24:11.102Z,16.90
2019-02-07T08:27:04.684Z,16.77
2019-02-07T08:30:17.083Z,15.93
2019-02-07T08:33:22.626Z,17.33
2019-02-07T08:36:21.022Z,15.53
2019-02-07T08:38:50.079Z,15.53
2019-02-07T08:41:36.898Z,14.53
2019-02-07T08:44:30.818Z,15.53
2019-02-07T08:47:18.819Z,14.50
2019-02-07T08:53:11.868Z,13.10
2019-02-07T08:56:06.967Z,13.37
2019-02-07T08:58:58.077Z,13.30
2019-02-07T09:01:45.140Z,13.20
2019-02-07T09:04:39.685Z,13.80
2019-02-07T09:07:35.426Z,12.37
2019-02-07T09:10:22.940Z,12.17
2019-02-07T09:13:15.624Z,12.20
2019-02-07T09:16:03.831Z,12.43
2019-02-07T09:18:52.897Z,11.57
2019-02-07T09:21:36.420Z,11.37
2019-02-07T09:24:42.080Z,11.93
2019-02-07T09:31:08.267Z,10.70
2019-02-07T09:33:52.711Z,10.37
2019-02-07T09:37:04.716Z,10.10
2019-02-07T09:40:08.284Z,9.73
2019-02-07T09:42:48.004Z,9.63
2019-02-07T09:45:45.798Z,9.07
2019-02-07T09:48:32.174Z,8.90
2019-02-07T09:51:42.932Z,9.23
2019-02-07T09:54:33.034Z,8.50
2019-02-07T09:57:24.630Z,9.00
2019-02-07T10:00:05.407Z,8.53
2019-02-07T10:02:48.463Z,8.67
2019-02-07T10:05:45.754Z,7.90
2019-02-07T10:08:35.389Z,8.70
2019-02-07T10:11:42.023Z,7.57
2019-02-07T10:17:37.406Z,8.20
2019-02-07T10:23:23.645Z,7.43
2019-02-07T10:26:10.381Z,7.13
2019-02-07T10:28:51.611Z,7.13
2019-02-07T10:31:45.230Z,7.00
2019-02-07T10:34:27.812Z,7.33
2019-02-07T10:39:50.215Z,7.37
2019-02-07T10:42:36.892Z,6.00
2019-02-07T10:45:25.928Z,6.57
2019-02-07T10:48:25.414Z,5.93
2019-02-07T10:53:57.891Z,6.30
2019-02-07T10:56:58.183Z,5.20
2019-02-07T11:02:52.177Z,5.47
2019-02-07T11:08:17.311Z,5.23
2019-02-07T11:11:17.997Z,5.13
2019-02-07T11:13:53.656Z,5.30
2019-02-07T11:16:43.278Z,6.47
2019-02-07T11:19:47.426Z,5.50
2019-02-07T11:22:31.371Z,5.20
2019-02-07T11:28:25.114Z,4.60
2019-02-07T11:31:23.732Z,5.07
2019-02-07T11:34:00.508Z,4.63
2019-02-07T11:36:54.551Z,4.40
2019-02-07T11:40:06.372Z,5.33
2019-02-07T11:43:15.209Z,4.77
2019-02-07T11:46:20.364Z,4.03
2019-02-07T11:49:07.209Z,4.87
2019-02-07T11:55:33.076Z,4.67
2019-02-07T11:58:19.469Z,5.43
2019-02-07T12:01:14.286Z,4.70
2019-02-07T12:09:26.095Z,4.43
2019-02-07T12:12:27.072Z,4.43
2019-02-07T12:15:27.915Z,4.67
2019-02-07T12:18:13.778Z,4.10
2019-02-07T12:21:20.627Z,4.43
2019-02-07T12:24:12.407Z,4.57
2019-02-07T12:27:10.688Z,4.10
2019-02-07T12:30:33.261Z,4.87
2019-02-07T12:33:17.575Z,4.50
2019-02-07T12:38:36.661Z,4.53
2019-02-07T12:41:41.167Z,4.40
2019-02-07T12:44:20.704Z,4.43
2019-02-07T12:47:07.559Z,4.10
2019-02-07T12:50:08.512Z,4.17
2019-02-07T12:52:56.839Z,3.83
2019-02-07T12:55:52.257Z,3.80
2019-02-07T12:59:48.003Z,4.10
2019-02-07T13:01:37.338Z,3.77
2019-02-07T13:05:18.870Z,3.60
2019-02-07T13:07:30.422Z,3.93
2019-02-07T13:10:25.731Z,3.73
2019-02-07T13:13:20.016Z,3.47
2019-02-07T13:16:06.467Z,3.90
2019-02-07T13:22:15.142Z,3.47
2019-02-07T13:25:24.076Z,3.20
2019-02-07T13:28:10.753Z,3.00
2019-02-07T13:31:02.568Z,3.10
2019-02-07T13:33:53.447Z,2.90
2019-02-07T13:36:40.230Z,3.00
2019-02-07T13:39:28.390Z,3.50
2019-02-07T13:42:09.145Z,2.97
2019-02-07T13:44:57.117Z,2.70
2019-02-07T13:48:06.400Z,2.77
2019-02-07T13:50:53.069Z,3.30
2019-02-07T13:53:31.084Z,3.07
2019-02-07T13:56:12.435Z,2.73
2019-02-07T13:59:15.086Z,2.73
2019-02-07T14:01:52.451Z,3.00
2019-02-07T14:04:49.463Z,2.80
2019-02-07T14:07:35.949Z,3.00
2019-02-07T14:10:24.153Z,2.83
2019-02-07T14:13:30.816Z,2.87
2019-02-07T14:16:41.683Z,2.93
2019-02-07T14:19:34.278Z,2.63
2019-02-07T14:22:21.023Z,2.63
2019-02-07T14:25:08.240Z,2.70
2019-02-07T14:28:09.899Z,2.73
2019-02-07T14:30:57.596Z,2.47
2019-02-07T14:33:49.677Z,2.80
2019-02-07T14:36:37.564Z,3.03
2019-02-07T14:39:22.127Z,2.43
2019-02-07T14:42:13.296Z,2.73
2019-02-07T14:45:01.319Z,3.00
2019-02-07T14:47:31.020Z,2.70
2019-02-07T14:50:15.050Z,3.83
2019-02-07T14:52:39.477Z,3.90
2019-02-07T14:55:17.985Z,3.93
2019-02-07T14:57:48.592Z,3.53
2019-02-07T15:00:20.872Z,4.10
2019-02-07T15:02:55.620Z,3.87
2019-02-07T15:05:24.622Z,3.90
2019-02-07T15:10:35.691Z,4.77
2019-02-07T15:13:04.951Z,4.63
2019-02-07T15:15:35.779Z,5.00
2019-02-07T15:18:08.179Z,4.83
2019-02-07T15:20:41.538Z,5.17
2019-02-07T15:23:19.059Z,4.40
2019-02-07T15:26:30.942Z,5.63
2019-02-07T15:29:02.801Z,4.93
2019-02-07T15:34:53.801Z,5.60
2019-02-07T15:37:26.880Z,5.50
2019-02-07T15:39:56.195Z,5.67
2019-02-07T15:42:35.346Z,5.73
2019-02-07T15:45:08.669Z,5.47
2019-02-07T15:48:01.389Z,5.63
2019-02-07T15:50:37.517Z,5.33
2019-02-07T15:55:37.913Z,5.57
2019-02-07T15:58:22.220Z,5.60
2019-02-07T16:01:12.254Z,6.33
2019-02-07T16:03:45.957Z,6.00
2019-02-07T16:06:19.047Z,6.07
2019-02-07T16:08:50.583Z,6.07
2019-02-07T16:11:30.284Z,6.53
2019-02-07T16:14:00.304Z,5.83
2019-02-07T16:16:30.850Z,6.80
2019-02-07T16:19:00.160Z,6.50
2019-02-07T16:21:31.956Z,6.50
2019-02-07T16:24:00.890Z,6.10
2019-02-07T16:26:30.106Z,6.80
2019-02-07T16:29:05.142Z,6.43
2019-02-07T16:31:34.223Z,6.77
2019-02-07T16:34:05.899Z,6.03
2019-02-07T16:36:38.643Z,6.27
2019-02-07T16:39:15.226Z,6.50
2019-02-07T16:41:44.343Z,6.33
2019-02-07T16:44:15.223Z,6.30
2019-02-07T16:46:44.331Z,6.30
2019-02-07T16:52:01.760Z,6.83
2019-02-07T16:54:30.593Z,6.50
2019-02-07T16:57:00.303Z,7.30
2019-02-07T16:59:29.681Z,6.60
2019-02-07T17:01:59.312Z,7.07
2019-02-07T17:04:35.403Z,7.10
2019-02-07T17:07:17.173Z,7.00
2019-02-07T17:09:48.287Z,6.90
2019-02-07T17:12:21.047Z,6.40
2019-02-07T17:14:57.659Z,6.30
2019-02-07T17:17:30.613Z,6.27
2019-02-07T17:20:14.483Z,7.17
2019-02-07T17:22:42.499Z,7.53
2019-02-07T17:25:17.542Z,7.33
2019-02-07T17:27:53.517Z,7.40
2019-02-07T17:30:23.228Z,7.33
2019-02-07T17:32:53.730Z,7.90
2019-02-07T17:35:38.884Z,8.37
2019-02-07T17:38:10.920Z,8.40
2019-02-07T17:40:59.026Z,8.30
2019-02-07T17:43:41.767Z,9.27
2019-02-07T17:46:19.469Z,7.73
2019-02-07T17:48:52.701Z,9.73
2019-02-07T17:51:23.623Z,10.20
2019-02-07T17:54:04.885Z,11.13
2019-02-07T17:56:36.035Z,10.00
2019-02-07T18:02:06.900Z,11.17
2019-02-07T18:04:44.215Z,12.03
2019-02-07T18:07:14.499Z,10.63
2019-02-07T18:09:43.880Z,11.20
2019-02-07T18:12:12.871Z,10.57
2019-02-07T18:14:42.098Z,10.77
2019-02-07T18:17:11.694Z,10.27
2019-02-07T18:19:43.600Z,11.23
2019-02-07T18:22:17.629Z,11.10
2019-02-07T18:24:46.840Z,11.23
2019-02-07T18:27:20.740Z,10.90
2019-02-07T18:32:37.019Z,11.13
2019-02-07T18:35:12.494Z,14.15
2019-02-07T18:37:43.540Z,12.40
2019-02-07T18:40:18.477Z,11.60
2019-02-07T18:42:49.496Z,11.33
2019-02-07T18:45:18.955Z,12.70
2019-02-07T18:47:55.035Z,11.77
2019-02-07T18:50:26.553Z,12.37
2019-02-07T18:53:02.886Z,12.27
2019-02-07T18:56:00.412Z,12.03
2019-02-07T18:58:30.525Z,11.67
2019-02-07T19:01:19.268Z,12.97
2019-02-07T19:03:56.473Z,12.93
2019-02-07T19:06:47.747Z,11.30
2019-02-07T19:09:26.634Z,11.13
2019-02-07T19:12:13.563Z,10.90
2019-02-07T19:20:28.407Z,8.30
2019-02-07T19:23:31.424Z,9.13
2019-02-07T19:26:03.426Z,6.63
2019-02-07T19:28:37.012Z,7.07
2019-02-07T19:31:06.075Z,7.70
2019-02-07T19:33:37.929Z,8.27
2019-02-07T19:36:09.514Z,8.33
2019-02-07T19:38:38.676Z,8.33
2019-02-07T19:41:09.939Z,8.63
2019-02-07T19:43:38.922Z,8.17
2019-02-07T19:46:10.787Z,9.37
2019-02-07T19:48:44.010Z,10.40
2019-02-07T19:51:15.318Z,9.77
2019-02-07T19:53:49.761Z,10.37
2019-02-07T19:56:23.908Z,10.93
2019-02-07T19:59:03.592Z,10.60
2019-02-07T20:01:49.946Z,11.43
2019-02-07T20:04:22.094Z,11.60
2019-02-07T20:06:54.256Z,11.47
2019-02-07T20:09:24.582Z,12.03
2019-02-07T20:11:54.565Z,13.73
2019-02-07T20:14:23.954Z,14.70
2019-02-07T20:17:19.271Z,14.63
2019-02-07T20:19:48.797Z,14.77
2019-02-07T20:22:23.484Z,16.13
2019-02-07T20:25:03.565Z,15.47
2019-02-07T20:27:38.862Z,16.70
2019-02-07T20:30:10.763Z,17.07
2019-02-07T20:32:47.967Z,18.27
2019-02-07T20:35:19.004Z,17.80
2019-02-07T20:38:14.835Z,18.60
2019-02-07T20:40:28.518Z,18.27
2019-02-07T20:43:07.575Z,17.53
2019-02-07T20:45:35.880Z,17.40
2019-02-07T20:48:12.095Z,17.60
2019-02-07T20:50:41.487Z,19.10
2019-02-07T20:55:47.902Z,19.10
2019-02-07T20:58:20.447Z,17.80
2019-02-07T21:00:59.984Z,18.33
2019-02-07T21:03:36.819Z,18.57
2019-02-07T21:06:17.211Z,19.47
2019-02-07T21:09:02.438Z,18.23
2019-02-07T21:11:35.692Z,18.67
2019-02-07T21:14:05.068Z,18.73
2019-02-07T21:16:37.769Z,18.27
2019-02-07T21:19:32.322Z,17.97
2019-02-07T21:22:16.852Z,19.67
2019-02-07T21:27:52.804Z,19.17
2019-02-07T21:30:50.508Z,19.97
2019-02-07T21:33:21.004Z,19.70
2019-02-07T21:36:00.220Z,18.87
2019-02-07T21:38:58.346Z,19.73
2019-02-07T21:41:28.715Z,19.63
2019-02-07T21:44:17.324Z,22.60
2019-02-07T21:47:03.260Z,21.63
2019-02-07T21:49:33.626Z,22.83
2019-02-07T21:52:06.709Z,22.40
2019-02-07T21:54:43.012Z,22.73
2019-02-07T22:00:42.342Z,24.30
2019-02-07T22:03:15.903Z,25.03
2019-02-07T22:06:14.228Z,26.33
2019-02-07T22:08:34.435Z,26.17
2019-02-07T22:11:08.467Z,27.83
2019-02-07T22:13:37.576Z,27.63
2019-02-07T22:16:16.260Z,28.83
2019-02-07T22:18:43.042Z,28.23
2019-02-07T22:21:18.874Z,27.87
2019-02-07T22:23:58.264Z,27.00
2019-02-07T22:26:23.016Z,27.33
2019-02-07T22:29:14.137Z,28.10
2019-02-07T22:31:48.492Z,27.77
2019-02-07T22:34:19.332Z,27.70
2019-02-07T22:36:53.001Z,27.47
2019-02-07T22:39:26.608Z,26.93
2019-02-07T22:41:56.024Z,27.87
2019-02-07T22:44:26.773Z,27.40
2019-02-07T22:47:18.709Z,27.57
2019-02-07T22:49:47.639Z,27.10
2019-02-07T22:52:23.706Z,27.23
2019-02-07T22:55:17.445Z,26.93
2019-02-07T22:57:46.564Z,25.80
2019-02-07T23:01:07.165Z,27.37
2019-02-07T23:03:40.965Z,26.50
2019-02-07T23:06:10.298Z,26.27
2019-02-07T23:08:57.902Z,26.57
2019-02-07T23:11:35.608Z,25.03
2019-02-07T23:14:05.173Z,24.30
2019-02-07T23:20:03.098Z,23.70
2019-02-07T23:22:33.695Z,23.30
2019-02-07T23:25:02.675Z,23.03
2019-02-07T23:30:56.844Z,22.50
2019-02-07T23:33:52.419Z,21.87
2019-02-07T23:36:21.345Z,21.67
2019-02-07T23:39:01.540Z,20.30
2019-02-07T23:41:45.514Z,19.80
2019-02-07T23:44:16.420Z,19.50
2019-02-07T23:47:32.007Z,20.47
2019-02-07T23:49:59.103Z,19.30
2019-02-07T23:52:09.907Z,19.27
2019-02-07T23:54:47.423Z,18.93
2019-02-07T23:57:18.497Z,18.70
2019-02-07T23:59:48.063Z,18.50
